createdAt,value
2023-02-24T00:02:05.065Z,170.40
2023-02-24T00:04:38.553Z,164.95
2023-02-24T00:07:11.639Z,160.88
2023-02-24T00:09:40.053Z,174.82
2023-02-24T00:12:13.065Z,176.88
2023-02-24T00:14:43.188Z,170.63
2023-02-24T00:17:14.643Z,168.75
2023-02-24T00:19:43.061Z,160.63
2023-02-24T00:22:12.897Z,169.25
2023-02-24T00:24:41.141Z,169.65
2023-02-24T00:27:11.268Z,167.70
2023-02-24T00:29:42.041Z,167.45
2023-02-24T00:32:14.888Z,166.63
2023-02-24T00:34:43.268Z,158.48
2023-02-24T00:37:12.148Z,162.80
2023-02-24T00:39:41.621Z,164.82
2023-02-24T00:42:12.273Z,165.95
2023-02-24T00:44:44.746Z,165.32
2023-02-24T00:47:14.179Z,231.65
2023-02-24T00:49:43.749Z,210.45
2023-02-24T00:52:17.108Z,216.13
2023-02-24T00:54:46.416Z,207.52
2023-02-24T00:57:18.236Z,175.90
2023-02-24T00:59:51.432Z,176.55
2023-02-24T01:02:20.524Z,172.98
2023-02-24T01:04:49.977Z,198.10
2023-02-24T01:07:18.053Z,200.07
2023-02-24T01:09:45.718Z,190.05
2023-02-24T01:12:32.591Z,178.25
2023-02-24T01:15:05.106Z,168.93
2023-02-24T01:17:36.393Z,167.33
2023-02-24T01:20:16.784Z,173.48
2023-02-24T01:22:50.803Z,151.65
2023-02-24T01:25:20.638Z,162.18
2023-02-24T01:27:49.111Z,145.88
2023-02-24T01:30:18.341Z,133.73
2023-02-24T01:32:47.443Z,136.95
2023-02-24T01:35:15.877Z,124.85
2023-02-24T01:37:45.516Z,136.80
2023-02-24T01:40:21.043Z,145.57
2023-02-24T01:42:49.672Z,137.88
2023-02-24T01:45:25.178Z,132.68
2023-02-24T01:48:00.225Z,146.18
2023-02-24T01:50:28.762Z,130.63
2023-02-24T01:53:02.221Z,128.90
2023-02-24T01:55:34.931Z,143.27
2023-02-24T01:58:10.142Z,141.53
2023-02-24T02:00:45.572Z,133.18
2023-02-24T02:03:22.425Z,137.73
2023-02-24T02:05:52.202Z,131.43
2023-02-24T02:08:23.703Z,128.68
2023-02-24T02:10:58.914Z,129.05
2023-02-24T02:13:28.166Z,137.18
2023-02-24T02:16:14.557Z,131.38
2023-02-24T02:18:56.406Z,129.38
2023-02-24T02:21:44.175Z,122.70
2023-02-24T02:24:30.670Z,118.13
2023-02-24T02:27:29.434Z,117.90
2023-02-24T02:30:32.125Z,116.90
2023-02-24T02:33:08.791Z,114.38
2023-02-24T02:35:42.841Z,124.75
2023-02-24T02:38:27.871Z,124.28
2023-02-24T02:41:11.246Z,129.70
2023-02-24T02:44:08.813Z,127.00
2023-02-24T02:46:51.425Z,128.65
2023-02-24T02:49:36.010Z,128.40
2023-02-24T02:52:10.528Z,130.60
2023-02-24T02:54:49.839Z,131.02
2023-02-24T02:57:23.901Z,138.77
2023-02-24T03:00:21.629Z,146.63
2023-02-24T03:02:56.216Z,140.07
2023-02-24T03:05:37.327Z,151.43
2023-02-24T03:08:11.580Z,163.77
2023-02-24T03:10:41.904Z,155.13
2023-02-24T03:13:13.407Z,150.00
2023-02-24T03:15:44.869Z,157.30
2023-02-24T03:18:29.176Z,149.40
2023-02-24T03:21:07.973Z,155.15
2023-02-24T03:23:46.135Z,147.82
2023-02-24T03:26:31.084Z,143.48
2023-02-24T03:29:19.275Z,152.13
2023-02-24T03:31:59.529Z,142.75
2023-02-24T03:34:59.599Z,145.70
2023-02-24T03:37:30.074Z,149.63
2023-02-24T03:40:08.377Z,143.80
2023-02-24T03:42:37.060Z,137.98
2023-02-24T03:45:06.832Z,147.40
2023-02-24T03:47:35.839Z,147.10
2023-02-24T03:50:13.422Z,135.48
2023-02-24T03:53:07.780Z,149.52
2023-02-24T03:55:48.185Z,149.43
2023-02-24T03:58:16.452Z,154.90
2023-02-24T04:01:05.676Z,152.18
2023-02-24T04:03:57.855Z,157.80
2023-02-24T04:06:51.508Z,154.18
2023-02-24T04:09:47.439Z,137.95
2023-02-24T04:12:32.271Z,139.48
2023-02-24T04:15:57.356Z,145.70
2023-02-24T04:18:34.917Z,141.70
2023-02-24T04:21:05.541Z,141.38
2023-02-24T04:23:43.761Z,144.30
2023-02-24T04:26:16.541Z,146.85
2023-02-24T04:28:48.615Z,141.85
2023-02-24T04:31:19.549Z,148.23
2023-02-24T04:33:50.520Z,137.02
2023-02-24T04:38:50.287Z,134.63
2023-02-24T04:41:21.701Z,149.45
2023-02-24T04:43:50.969Z,145.70
2023-02-24T04:46:20.323Z,147.90
2023-02-24T04:48:47.902Z,148.48
2023-02-24T04:51:15.776Z,138.40
2023-02-24T04:53:43.923Z,142.18
2023-02-24T04:56:12.191Z,148.68
2023-02-24T04:58:41.228Z,139.35
2023-02-24T05:01:11.136Z,134.63
2023-02-24T05:03:43.348Z,136.25
2023-02-24T05:06:17.210Z,140.90
2023-02-24T05:11:16.202Z,132.45
2023-02-24T05:13:46.196Z,144.73
2023-02-24T05:16:17.531Z,137.73
2023-02-24T05:18:45.633Z,136.55
2023-02-24T05:21:34.924Z,133.55
2023-02-24T05:24:11.317Z,141.45
2023-02-24T05:26:41.832Z,141.07
2023-02-24T05:29:12.565Z,142.68
2023-02-24T05:31:40.218Z,138.77
2023-02-24T05:34:09.080Z,129.00
2023-02-24T05:36:40.343Z,139.00
2023-02-24T05:39:14.626Z,141.65
2023-02-24T05:41:43.829Z,142.85
2023-02-24T05:44:14.251Z,133.98
2023-02-24T05:46:45.378Z,126.65
2023-02-24T05:49:23.545Z,127.93
2023-02-24T05:51:55.257Z,129.35
2023-02-24T05:54:32.179Z,140.80
2023-02-24T05:57:09.414Z,141.15
2023-02-24T05:59:38.712Z,130.52
2023-02-24T06:02:09.494Z,122.43
2023-02-24T06:04:40.015Z,122.32
2023-02-24T06:07:19.215Z,119.00
2023-02-24T06:09:53.604Z,117.40
2023-02-24T06:12:24.163Z,119.60
2023-02-24T06:14:53.172Z,129.18
2023-02-24T06:17:22.949Z,121.40
2023-02-24T06:19:52.815Z,118.20
2023-02-24T06:22:22.976Z,116.40
2023-02-24T06:24:50.653Z,123.35
2023-02-24T06:27:21.566Z,126.00
2023-02-24T06:29:51.173Z,125.90
2023-02-24T06:32:23.683Z,128.70
2023-02-24T06:34:52.060Z,117.20
2023-02-24T06:37:20.463Z,117.07
2023-02-24T06:39:48.486Z,110.53
2023-02-24T06:42:16.605Z,113.70
2023-02-24T06:44:44.090Z,119.05
2023-02-24T06:47:14.388Z,122.22
2023-02-24T06:49:45.016Z,115.45
2023-02-24T06:52:18.588Z,114.90
2023-02-24T06:54:49.755Z,122.38
2023-02-24T06:57:18.082Z,134.27
2023-02-24T06:59:46.326Z,119.82
2023-02-24T07:02:14.171Z,136.20
2023-02-24T07:04:44.149Z,119.68
2023-02-24T07:07:14.608Z,129.63
2023-02-24T07:09:45.429Z,131.50
2023-02-24T07:12:13.674Z,130.10
2023-02-24T07:14:41.742Z,136.82
2023-02-24T07:17:10.361Z,142.73
2023-02-24T07:19:38.156Z,133.15
2023-02-24T07:22:06.173Z,142.57
2023-02-24T07:24:37.327Z,138.20
2023-02-24T07:27:12.644Z,136.27
2023-02-24T07:29:40.591Z,143.73
2023-02-24T07:32:09.643Z,133.57
2023-02-24T07:34:40.676Z,136.07
2023-02-24T07:37:09.745Z,139.75
2023-02-24T07:39:39.499Z,138.95
2023-02-24T07:42:10.107Z,136.38
2023-02-24T07:44:46.907Z,134.02
2023-02-24T07:47:16.274Z,146.10
2023-02-24T07:49:45.404Z,130.02
2023-02-24T07:52:14.340Z,138.05
2023-02-24T07:54:43.274Z,131.48
2023-02-24T07:57:14.207Z,137.70
2023-02-24T07:59:45.130Z,138.63
2023-02-24T08:02:13.924Z,137.48
2023-02-24T08:04:44.627Z,145.15
2023-02-24T08:07:14.632Z,159.50
2023-02-24T08:09:45.870Z,147.15
2023-02-24T08:12:18.497Z,145.93
2023-02-24T08:14:51.609Z,154.70
2023-02-24T08:17:23.100Z,153.13
2023-02-24T08:20:12.636Z,154.52
2023-02-24T08:22:44.293Z,157.48
2023-02-24T08:25:18.750Z,150.60
2023-02-24T08:28:06.734Z,140.95
2023-02-24T08:30:40.294Z,138.27
2023-02-24T08:33:16.133Z,138.00
2023-02-24T08:35:46.763Z,148.52
2023-02-24T08:38:19.899Z,142.02
2023-02-24T08:40:55.173Z,152.38
2023-02-24T08:43:34.531Z,138.27
2023-02-24T08:46:25.618Z,155.10
2023-02-24T08:49:00.876Z,152.48
2023-02-24T08:51:34.875Z,165.27
2023-02-24T08:54:11.009Z,153.77
2023-02-24T08:56:43.708Z,162.52
2023-02-24T08:59:32.105Z,152.80
2023-02-24T09:02:32.355Z,168.65
2023-02-24T09:05:07.960Z,162.90
2023-02-24T09:07:39.014Z,166.13
2023-02-24T09:10:11.963Z,163.98
2023-02-24T09:12:42.504Z,159.52
2023-02-24T09:15:12.021Z,158.27
2023-02-24T09:17:45.602Z,149.80
2023-02-24T09:20:27.760Z,149.07
2023-02-24T09:23:03.338Z,143.13
2023-02-24T09:25:41.682Z,147.27
2023-02-24T09:28:11.085Z,144.90
2023-02-24T09:30:51.445Z,151.45
2023-02-24T09:33:29.058Z,157.90
2023-02-24T09:36:13.082Z,147.20
2023-02-24T09:39:06.964Z,148.75
2023-02-24T09:41:56.318Z,157.70
2023-02-24T09:44:40.431Z,153.93
2023-02-24T09:47:45.332Z,142.30
2023-02-24T09:50:59.120Z,149.65
2023-02-24T09:53:18.877Z,146.70
2023-02-24T09:56:22.248Z,157.68
2023-02-24T09:58:58.617Z,151.85
2023-02-24T10:01:49.679Z,142.05
2023-02-24T10:04:23.033Z,141.02
2023-02-24T10:06:58.969Z,154.68
2023-02-24T10:09:35.161Z,146.38
2023-02-24T10:12:40.215Z,147.38
2023-02-24T10:15:19.155Z,141.02
2023-02-24T10:18:27.322Z,131.82
2023-02-24T10:21:04.132Z,125.63
2023-02-24T10:23:47.491Z,131.80
2023-02-24T10:26:34.843Z,126.28
2023-02-24T10:29:29.517Z,130.35
2023-02-24T10:32:23.956Z,124.95
2023-02-24T10:34:53.740Z,125.97
2023-02-24T10:37:28.986Z,126.32
2023-02-24T10:40:09.783Z,125.25
2023-02-24T10:42:46.011Z,123.00
2023-02-24T10:45:25.212Z,118.65
2023-02-24T10:47:58.426Z,121.93
2023-02-24T10:50:26.200Z,120.05
2023-02-24T10:53:05.867Z,125.45
2023-02-24T10:55:45.538Z,116.03
2023-02-24T10:58:28.339Z,124.43
2023-02-24T11:01:07.075Z,118.07
2023-02-24T11:03:42.573Z,123.50
2023-02-24T11:06:30.929Z,117.45
2023-02-24T11:09:19.454Z,113.57
2023-02-24T11:12:06.867Z,111.60
2023-02-24T11:15:06.047Z,108.15
2023-02-24T11:17:37.009Z,105.70
2023-02-24T11:20:11.034Z,111.20
2023-02-24T11:22:42.123Z,115.95
2023-02-24T11:25:21.004Z,120.38
2023-02-24T11:27:49.278Z,121.57
2023-02-24T11:30:26.688Z,119.78
2023-02-24T11:33:00.518Z,121.95
2023-02-24T11:35:37.795Z,114.72
2023-02-24T11:38:37.566Z,102.97
2023-02-24T11:41:26.185Z,98.63
2023-02-24T11:44:04.176Z,113.63
2023-02-24T11:46:42.081Z,103.35
2023-02-24T11:49:45.667Z,111.18
2023-02-24T11:52:27.403Z,109.38
2023-02-24T11:54:58.394Z,110.72
2023-02-24T11:57:48.281Z,111.15
2023-02-24T12:00:23.555Z,102.35
2023-02-24T12:03:02.197Z,105.78
2023-02-24T12:05:39.200Z,101.25
2023-02-24T12:08:09.834Z,103.85
2023-02-24T12:10:51.013Z,109.03
2023-02-24T12:13:30.355Z,111.47
2023-02-24T12:16:07.997Z,111.32
2023-02-24T12:18:40.997Z,115.22
2023-02-24T12:21:13.224Z,117.70
2023-02-24T12:23:44.391Z,121.53
2023-02-24T12:26:28.467Z,112.07
2023-02-24T12:29:02.529Z,113.30
2023-02-24T12:31:52.219Z,94.30
2023-02-24T12:34:31.963Z,101.25
2023-02-24T12:37:08.025Z,93.10
2023-02-24T12:39:57.140Z,98.07
2023-02-24T12:43:17.524Z,97.47
2023-02-24T12:46:15.120Z,89.82
2023-02-24T12:49:34.952Z,100.93
2023-02-24T12:52:07.929Z,97.35
2023-02-24T12:54:51.108Z,93.28
2023-02-24T12:57:27.677Z,95.32
2023-02-24T12:59:58.088Z,96.43
2023-02-24T13:03:06.592Z,97.60
2023-02-24T13:05:52.220Z,89.75
2023-02-24T13:09:08.573Z,85.82
2023-02-24T13:11:39.258Z,87.35
2023-02-24T13:14:20.642Z,87.10
2023-02-24T13:16:49.086Z,81.88
2023-02-24T13:19:29.567Z,91.15
2023-02-24T13:22:03.605Z,91.80
2023-02-24T13:24:32.896Z,83.93
2023-02-24T13:27:21.179Z,92.57
2023-02-24T13:29:58.093Z,87.53
2023-02-24T13:32:33.175Z,92.60
2023-02-24T13:35:07.825Z,90.85
2023-02-24T13:37:38.737Z,86.90
2023-02-24T13:40:16.631Z,91.28
2023-02-24T13:43:01.257Z,82.55
2023-02-24T13:45:37.437Z,80.85
2023-02-24T13:48:24.105Z,78.15
2023-02-24T13:51:08.238Z,81.80
2023-02-24T13:53:38.488Z,82.68
2023-02-24T13:56:31.286Z,75.47
2023-02-24T13:59:24.260Z,80.43
2023-02-24T14:02:00.115Z,76.45
2023-02-24T14:04:31.236Z,85.53
2023-02-24T14:07:09.058Z,71.47
2023-02-24T14:09:43.299Z,76.20
2023-02-24T14:12:29.885Z,83.32
2023-02-24T14:14:58.050Z,69.70
2023-02-24T14:17:32.130Z,73.05
2023-02-24T14:20:14.358Z,69.65
2023-02-24T14:22:50.483Z,73.75
2023-02-24T14:25:18.260Z,72.22
2023-02-24T14:27:50.390Z,70.47
2023-02-24T14:30:34.196Z,71.97
2023-02-24T14:33:03.488Z,76.82
2023-02-24T14:35:41.938Z,71.80
2023-02-24T14:38:36.061Z,77.35
2023-02-24T14:41:25.435Z,79.10
2023-02-24T14:43:54.395Z,75.47
2023-02-24T14:46:23.809Z,74.72
2023-02-24T14:48:55.133Z,71.97
2023-02-24T14:51:28.259Z,83.97
2023-02-24T14:53:59.977Z,73.28
2023-02-24T14:56:32.887Z,76.50
2023-02-24T14:59:25.161Z,80.68
2023-02-24T15:01:55.823Z,73.80
2023-02-24T15:04:36.910Z,78.95
2023-02-24T15:07:08.464Z,77.25
2023-02-24T15:09:42.494Z,82.10
2023-02-24T15:12:13.140Z,83.00
2023-02-24T15:14:43.591Z,85.85
2023-02-24T15:17:17.246Z,90.43
2023-02-24T15:22:28.994Z,78.90
2023-02-24T15:25:18.989Z,85.45
2023-02-24T15:27:56.289Z,78.25
2023-02-24T15:30:36.653Z,82.97
2023-02-24T15:33:19.582Z,84.57
2023-02-24T15:35:51.995Z,81.93
2023-02-24T15:38:26.134Z,75.45
2023-02-24T15:40:57.391Z,81.85
2023-02-24T15:43:34.420Z,81.20
2023-02-24T15:46:13.711Z,87.97
2023-02-24T15:48:53.298Z,77.35
2023-02-24T15:51:45.432Z,80.30
2023-02-24T15:54:16.861Z,90.28
2023-02-24T15:56:46.650Z,79.80
2023-02-24T15:59:16.455Z,84.50
2023-02-24T16:01:44.671Z,81.97
2023-02-24T16:04:12.331Z,83.60
2023-02-24T16:06:43.961Z,81.95
2023-02-24T16:09:16.809Z,81.22
2023-02-24T16:11:47.308Z,78.32
2023-02-24T16:14:18.570Z,79.50
2023-02-24T16:16:46.576Z,75.15
2023-02-24T16:19:15.864Z,76.22
2023-02-24T16:21:44.380Z,71.57
2023-02-24T16:24:13.041Z,83.07
2023-02-24T16:26:41.866Z,79.28
2023-02-24T16:29:15.289Z,81.30
2023-02-24T16:31:43.461Z,81.18
2023-02-24T16:34:15.000Z,83.57
2023-02-24T16:36:44.062Z,73.95
2023-02-24T16:39:14.857Z,84.55
2023-02-24T16:41:42.960Z,85.75
2023-02-24T16:44:10.943Z,79.57
2023-02-24T16:46:41.293Z,78.07
2023-02-24T16:49:10.690Z,76.28
2023-02-24T16:51:40.552Z,73.95
2023-02-24T16:54:08.802Z,79.65
2023-02-24T16:56:36.609Z,78.22
2023-02-24T16:59:05.149Z,84.13
2023-02-24T17:01:33.928Z,94.03
2023-02-24T17:04:05.263Z,85.40
2023-02-24T17:06:33.860Z,91.32
2023-02-24T17:09:02.821Z,86.13
2023-02-24T17:11:30.929Z,85.97
2023-02-24T17:13:59.893Z,82.15
2023-02-24T17:16:28.618Z,82.57
2023-02-24T17:18:56.859Z,81.45
2023-02-24T17:21:25.251Z,81.28
2023-02-24T17:23:52.853Z,86.47
2023-02-24T17:26:21.477Z,85.20
2023-02-24T17:28:49.869Z,91.03
2023-02-24T17:31:17.586Z,85.22
2023-02-24T17:33:46.049Z,91.32
2023-02-24T17:36:13.701Z,85.00
2023-02-24T17:38:41.216Z,89.03
2023-02-24T17:41:09.204Z,90.13
2023-02-24T17:43:37.025Z,82.13
2023-02-24T17:46:07.150Z,90.90
2023-02-24T17:48:35.422Z,89.25
2023-02-24T17:51:03.258Z,78.97
2023-02-24T17:53:31.851Z,92.30
2023-02-24T17:56:05.505Z,81.38
2023-02-24T18:01:02.620Z,86.78
2023-02-24T18:03:32.629Z,91.53
2023-02-24T18:06:05.393Z,90.55
2023-02-24T18:08:34.877Z,97.07
2023-02-24T18:11:03.957Z,98.15
2023-02-24T18:13:33.437Z,95.10
2023-02-24T18:16:02.184Z,92.72
2023-02-24T18:18:30.478Z,97.22
2023-02-24T18:21:02.943Z,94.32
2023-02-24T18:23:32.233Z,94.45
2023-02-24T18:26:04.953Z,89.28
2023-02-24T18:28:33.447Z,91.68
2023-02-24T18:31:03.276Z,89.85
2023-02-24T18:33:31.105Z,96.65
2023-02-24T18:36:00.710Z,95.80
2023-02-24T18:38:29.592Z,85.82
2023-02-24T18:41:15.696Z,95.90
2023-02-24T18:43:43.527Z,87.40
2023-02-24T18:46:14.073Z,91.57
2023-02-24T18:48:44.558Z,90.72
2023-02-24T18:51:14.931Z,91.70
2023-02-24T18:53:43.441Z,96.07
2023-02-24T18:56:17.757Z,98.13
2023-02-24T18:58:47.025Z,95.60
2023-02-24T19:01:21.183Z,98.82
2023-02-24T19:03:51.111Z,95.65
2023-02-24T19:06:21.547Z,91.40
2023-02-24T19:08:55.288Z,101.18
2023-02-24T19:11:23.151Z,104.45
2023-02-24T19:13:52.048Z,92.30
2023-02-24T19:16:20.461Z,102.07
2023-02-24T19:18:53.489Z,104.35
2023-02-24T19:21:21.844Z,101.50
2023-02-24T19:23:49.414Z,98.90
2023-02-24T19:26:21.281Z,97.00
2023-02-24T19:28:49.122Z,108.75
2023-02-24T19:31:23.667Z,107.90
2023-02-24T19:33:57.362Z,98.75
2023-02-24T19:38:54.346Z,107.88
2023-02-24T19:41:21.934Z,100.47
2023-02-24T19:43:50.360Z,107.60
2023-02-24T19:46:19.079Z,97.97
2023-02-24T19:48:48.530Z,101.35
2023-02-24T19:51:23.029Z,101.28
2023-02-24T19:53:55.999Z,90.55
2023-02-24T19:56:29.401Z,98.13
2023-02-24T19:58:58.784Z,101.20
2023-02-24T20:01:27.960Z,98.13
2023-02-24T20:03:57.705Z,103.85
2023-02-24T20:06:31.241Z,105.55
2023-02-24T20:09:00.475Z,101.40
2023-02-24T20:11:29.892Z,105.32
2023-02-24T20:13:57.846Z,100.05
2023-02-24T20:16:27.284Z,106.60
2023-02-24T20:18:55.461Z,108.88
2023-02-24T20:21:23.874Z,110.38
2023-02-24T20:23:51.987Z,111.82
2023-02-24T20:26:21.185Z,110.38
2023-02-24T20:28:49.826Z,107.82
2023-02-24T20:31:19.597Z,107.65
2023-02-24T20:33:50.957Z,110.15
2023-02-24T20:36:23.812Z,121.25
2023-02-24T20:38:52.237Z,113.22
2023-02-24T20:41:21.909Z,108.90
2023-02-24T20:43:50.949Z,112.70
2023-02-24T20:46:29.398Z,108.05
2023-02-24T20:49:02.217Z,115.28
2023-02-24T20:51:31.733Z,108.03
2023-02-24T20:53:59.940Z,108.53
2023-02-24T20:56:33.106Z,102.60
2023-02-24T20:59:04.228Z,113.75
2023-02-24T21:01:33.638Z,102.97
2023-02-24T21:04:02.099Z,105.13
2023-02-24T21:06:30.863Z,106.85
2023-02-24T21:08:58.987Z,105.65
2023-02-24T21:11:29.797Z,111.57
2023-02-24T21:13:58.640Z,107.60
2023-02-24T21:16:28.257Z,107.65
2023-02-24T21:18:58.022Z,106.70
2023-02-24T21:21:26.648Z,105.75
2023-02-24T21:23:55.229Z,109.55
2023-02-24T21:26:26.718Z,105.25
2023-02-24T21:28:57.607Z,99.40
2023-02-24T21:31:27.414Z,104.25
2023-02-24T21:33:56.189Z,111.75
2023-02-24T21:36:25.860Z,107.38
2023-02-24T21:38:54.722Z,112.95
2023-02-24T21:41:23.886Z,106.75
2023-02-24T21:43:54.916Z,111.03
2023-02-24T21:46:28.259Z,109.93
2023-02-24T21:49:00.357Z,111.47
2023-02-24T21:51:28.311Z,115.80
2023-02-24T21:53:56.960Z,103.35
2023-02-24T21:56:28.640Z,113.88
2023-02-24T21:59:02.303Z,112.95
2023-02-24T22:01:39.790Z,114.25
2023-02-24T22:04:10.722Z,111.13
2023-02-24T22:06:40.757Z,113.05
2023-02-24T22:09:10.164Z,114.78
2023-02-24T22:11:41.038Z,113.13
2023-02-24T22:14:12.028Z,115.57
2023-02-24T22:16:40.819Z,100.60
2023-02-24T22:19:08.819Z,119.40
2023-02-24T22:21:39.238Z,110.82
2023-02-24T22:24:07.128Z,111.18
2023-02-24T22:26:34.729Z,114.85
2023-02-24T22:29:03.884Z,113.10
2023-02-24T22:31:33.203Z,109.88
2023-02-24T22:34:01.876Z,120.38
2023-02-24T22:36:33.570Z,121.20
2023-02-24T22:39:02.933Z,123.45
2023-02-24T22:41:33.262Z,120.95
2023-02-24T22:44:03.647Z,138.57
2023-02-24T22:46:37.472Z,118.82
2023-02-24T22:49:05.980Z,128.70
2023-02-24T22:51:34.119Z,123.80
2023-02-24T22:54:02.636Z,110.30
2023-02-24T22:56:31.249Z,129.88
2023-02-24T22:59:00.782Z,125.38
2023-02-24T23:01:30.950Z,118.30
2023-02-24T23:04:02.692Z,121.53
2023-02-24T23:06:31.480Z,118.40
2023-02-24T23:09:01.214Z,119.93
2023-02-24T23:11:32.426Z,121.82
2023-02-24T23:14:04.186Z,117.72
2023-02-24T23:16:34.565Z,122.18
2023-02-24T23:19:12.986Z,119.00
2023-02-24T23:21:43.255Z,120.78
2023-02-24T23:24:14.289Z,126.13
2023-02-24T23:26:45.894Z,121.18
2023-02-24T23:29:17.660Z,120.22
2023-02-24T23:31:46.594Z,125.65
2023-02-24T23:34:15.968Z,130.15
2023-02-24T23:36:46.482Z,124.15
2023-02-24T23:39:16.651Z,121.57
2023-02-24T23:41:44.392Z,134.07
2023-02-24T23:44:12.615Z,138.13
2023-02-24T23:46:41.848Z,126.53
2023-02-24T23:49:09.998Z,129.38
2023-02-24T23:51:48.105Z,130.48
2023-02-24T23:54:18.279Z,135.38
2023-02-24T23:56:46.902Z,141.93
2023-02-24T23:59:15.134Z,138.77
